Time;durP1;ratioP1;P1;durP2;ratioP2;P2;SDS_P1;SDS_P2;PMS_P1;PMS_P2;Temp;Humidity;BMP_temperature;BMP_pressure;BME280_temperature;BME280_humidity;BME280_pressure;Samples;Min_cycle;Max_cycle;Signal;HPM_P1;HPM_P2
2023/02/12 00:01:59;;;;;;;30.50;21.08;;;4.00;99.90;;;3.02;100.00;103083.75;4154987;28;20022;-78
2023/02/12 00:04:00;;;;;;;26.70;19.13;;;4.00;99.90;;;2.96;100.00;103076.97;4155261;28;20037;-78
2023/02/12 00:06:02;;;;;;;27.70;18.83;;;4.00;99.90;;;2.89;100.00;103078.09;4153868;28;20034;-78
2023/02/12 00:08:03;;;;;;;31.65;22.23;;;3.90;99.90;;;2.97;100.00;103077.84;4162527;28;20029;-78
2023/02/12 00:10:04;;;;;;;29.42;20.33;;;3.90;99.90;;;2.87;100.00;103069.47;4155220;28;20030;-78
2023/02/12 00:12:06;;;;;;;31.55;21.38;;;3.90;99.90;;;2.85;100.00;103073.03;4153642;28;20124;-78
2023/02/12 00:14:07;;;;;;;33.55;22.58;;;3.90;99.90;;;2.85;100.00;103075.63;4165698;28;20084;-78
2023/02/12 00:16:14;;;;;;;33.78;22.40;;;3.90;99.90;;;2.94;100.00;103049.28;4168452;28;20501;-78
2023/02/12 00:18:15;;;;;;;30.92;21.55;;;3.90;99.90;;;3.01;100.00;103062.06;4164101;28;20026;-78
2023/02/12 00:20:16;;;;;;;32.28;22.60;;;4.00;99.90;;;3.02;100.00;103066.34;4153917;28;20109;-78
2023/02/12 00:22:17;;;;;;;34.92;23.45;;;4.00;99.90;;;3.05;100.00;103068.84;4154856;28;20026;-78
2023/02/12 00:24:18;;;;;;;37.78;23.73;;;4.00;99.90;;;3.07;100.00;103069.69;4153439;28;20109;-78
2023/02/12 00:26:21;;;;;;;34.60;22.50;;;4.00;99.90;;;3.07;100.00;103058.41;4155290;28;20061;-78
2023/02/12 00:28:22;;;;;;;33.60;22.25;;;4.00;99.90;;;2.99;100.00;103058.63;4169757;28;20040;-78
2023/02/12 00:30:23;;;;;;;32.35;22.02;;;4.00;99.90;;;3.05;100.00;103066.25;4169823;28;20036;-78
2023/02/12 00:32:24;;;;;;;29.75;20.13;;;4.00;99.90;;;2.97;100.00;103065.66;4169414;28;20029;-78
2023/02/12 00:34:25;;;;;;;32.30;23.05;;;4.00;99.90;;;2.99;100.00;103057.78;4153450;28;20108;-78
2023/02/12 00:36:30;;;;;;;32.10;22.15;;;3.90;99.90;;;2.92;100.00;103057.16;4186249;28;20033;-78
2023/02/12 00:38:31;;;;;;;34.80;23.77;;;3.90;99.90;;;3.01;100.00;103058.59;4173709;28;20060;-78
2023/02/12 00:40:32;;;;;;;33.88;22.35;;;3.90;99.90;;;2.95;100.00;103064.88;4153217;28;20090;-78
2023/02/12 00:42:33;;;;;;;34.95;22.88;;;3.90;99.90;;;2.94;100.00;103067.50;4153193;28;20022;-78
2023/02/12 00:44:34;;;;;;;29.45;21.08;;;3.90;99.90;;;2.90;100.00;103056.34;4153238;28;20080;-78
2023/02/12 00:46:35;;;;;;;31.80;22.42;;;3.90;99.90;;;2.84;100.00;103064.34;4172983;28;20550;-78
2023/02/12 00:48:36;;;;;;;31.67;21.33;;;3.80;99.90;;;2.72;100.00;103059.53;4137682;28;20190;-78
2023/02/12 00:50:39;;;;;;;34.15;22.48;;;3.80;99.90;;;2.77;100.00;103062.88;4153135;28;20177;-78
2023/02/12 00:52:40;;;;;;;32.97;22.90;;;3.80;99.90;;;2.78;100.00;103060.19;4161729;28;20029;-78
2023/02/12 00:54:41;;;;;;;33.40;22.25;;;3.70;99.90;;;2.73;100.00;103059.50;4158794;28;20037;-78
2023/02/12 00:56:42;;;;;;;33.78;23.05;;;3.80;99.90;;;2.75;100.00;103056.81;4160975;28;20026;-78
2023/02/12 00:58:43;;;;;;;32.22;22.90;;;3.70;99.90;;;2.74;100.00;103065.56;4152255;28;20037;-78
2023/02/12 01:00:44;;;;;;;32.25;22.10;;;3.70;99.90;;;2.77;100.00;103057.66;4154348;28;20022;-78
2023/02/12 01:02:45;;;;;;;33.22;21.92;;;3.70;99.90;;;2.75;100.00;103054.22;4169079;28;20022;-78
2023/02/12 01:04:46;;;;;;;33.22;22.50;;;3.70;99.90;;;2.69;100.00;103047.47;4152811;28;20029;-78
2023/02/12 01:06:47;;;;;;;31.98;22.55;;;3.70;99.90;;;2.65;100.00;103052.84;4159208;28;20105;-78
2023/02/12 01:08:51;;;;;;;34.67;23.67;;;3.70;99.90;;;2.64;100.00;103043.31;4169650;28;20071;-78
2023/02/12 01:11:02;;;;;;;31.20;23.25;;;3.60;99.90;;;2.70;100.00;103045.72;4147525;28;20108;-78
2023/02/12 01:13:03;;;;;;;34.40;24.35;;;3.70;99.90;;;2.65;100.00;103034.59;4169466;28;20030;-78
2023/02/12 01:15:04;;;;;;;34.90;23.10;;;3.70;99.90;;;2.75;100.00;103042.03;4164012;28;20446;-78
2023/02/12 01:17:08;;;;;;;43.50;25.00;;;3.70;99.90;;;2.73;100.00;103032.59;4168776;28;20056;-78
2023/02/12 01:19:11;;;;;;;35.45;23.83;;;3.70;99.90;;;2.79;100.00;103041.06;4152843;28;20026;-79
2023/02/12 01:21:15;;;;;;;39.80;25.33;;;3.80;99.90;;;2.84;100.00;103035.69;4152602;28;20041;-78
2023/02/12 01:23:16;;;;;;;33.47;22.92;;;3.80;99.90;;;2.78;100.00;103022.84;4154011;28;20044;-78
2023/02/12 01:25:18;;;;;;;38.08;24.30;;;3.80;99.90;;;2.81;100.00;103025.34;4152478;28;20025;-78
2023/02/12 01:27:19;;;;;;;36.90;24.38;;;3.80;99.90;;;2.81;100.00;103030.56;4168884;28;20025;-78
2023/02/12 01:29:20;;;;;;;35.47;23.73;;;3.80;99.90;;;2.81;100.00;103030.56;4152890;28;20026;-78
2023/02/12 01:31:25;;;;;;;33.38;22.67;;;3.80;99.90;;;2.78;100.00;103028.06;4156490;28;20063;-78
2023/02/12 01:33:26;;;;;;;37.58;23.35;;;3.80;99.90;;;2.76;100.00;103022.06;4168831;28;20083;-78
2023/02/12 01:35:27;;;;;;;34.92;22.73;;;3.80;99.90;;;2.74;100.00;103029.09;4169081;28;20029;-78
2023/02/12 01:37:28;;;;;;;36.58;23.48;;;3.80;99.90;;;2.74;100.00;103027.34;4168752;28;20049;-78
2023/02/12 01:39:29;;;;;;;35.85;24.17;;;3.70;99.90;;;2.73;100.00;103027.38;4170432;28;20040;-78
2023/02/12 01:41:42;;;;;;;34.53;23.38;;;3.80;99.90;;;2.77;100.00;103027.22;4168923;28;20113;-78
2023/02/12 01:43:43;;;;;;;36.10;21.58;;;3.80;99.90;;;2.71;100.00;103026.56;4170121;28;20052;-78
2023/02/12 01:45:52;;;;;;;34.38;22.15;;;3.70;99.90;;;2.55;100.00;103014.94;4170125;28;20393;-78
2023/02/12 01:47:53;;;;;;;31.05;21.80;;;3.60;99.90;;;2.56;100.00;103025.31;4176177;28;20456;-78
2023/02/12 01:49:54;;;;;;;30.20;21.88;;;3.60;99.90;;;2.62;100.00;103024.28;4152365;28;20022;-78
2023/02/12 01:52:07;;;;;;;37.28;24.65;;;3.60;99.90;;;2.64;100.00;103030.28;4153301;28;20025;-78
2023/02/12 01:54:12;;;;;;;36.08;23.48;;;3.60;99.90;;;2.72;100.00;103021.31;4153668;28;20504;-78
2023/02/12 01:56:14;;;;;;;38.05;24.50;;;3.70;99.90;;;2.72;100.00;103025.66;4157053;28;20049;-78
2023/02/12 01:58:16;;;;;;;42.70;25.40;;;3.70;99.90;;;2.70;100.00;103023.13;4170693;28;20033;-78
2023/02/12 02:00:22;;;;;;;40.42;25.42;;;3.60;99.90;;;2.70;100.00;103022.25;4151559;28;20022;-78
2023/02/12 02:02:23;;;;;;;38.72;22.88;;;3.70;99.90;;;2.66;100.00;103018.03;4167784;28;20026;-78
2023/02/12 02:04:31;;;;;;;35.08;24.02;;;3.70;99.90;;;2.62;100.00;103021.66;4157333;28;20464;-78
2023/02/12 02:06:52;;;;;;;36.30;24.17;;;3.60;99.90;;;2.61;100.00;103028.63;4157401;28;20049;-78
2023/02/12 02:08:55;;;;;;;42.28;25.02;;;3.60;99.90;;;2.60;100.00;103026.91;4160142;28;20033;-78
2023/02/12 02:10:56;;;;;;;36.13;24.42;;;3.60;99.90;;;2.57;100.00;103031.38;4152157;28;20030;-78
2023/02/12 02:15:16;;;;;;;35.10;23.63;;;3.50;99.90;;;2.40;100.00;103023.22;4166156;28;20562;-78
2023/02/12 02:17:45;;;;;;;39.53;23.85;;;3.40;99.90;;;2.38;100.00;103031.09;4154825;28;20493;-78
2023/02/12 02:20:19;;;;;;;41.40;23.63;;;3.40;99.90;;;2.31;100.00;103024.38;4157546;28;20025;-78
2023/02/12 02:22:40;;;;;;;37.65;23.17;;;3.30;99.90;;;2.24;100.00;103030.66;4169389;28;20025;-77
2023/02/12 02:25:10;;;;;;;38.05;23.98;;;3.30;99.90;;;2.20;100.00;103021.25;4169141;28;20519;-78
2023/02/12 02:27:24;;;;;;;40.97;24.67;;;3.30;99.90;;;2.34;100.00;103031.22;4153972;28;20034;-78
2023/02/12 02:30:05;;;;;;;40.55;25.25;;;3.30;99.90;;;2.36;100.00;103032.06;4152796;28;20057;-78
2023/02/12 02:32:22;;;;;;;38.58;24.30;;;3.40;99.90;;;2.30;100.00;103029.66;4178048;28;20025;-78
2023/02/12 02:34:37;;;;;;;40.60;24.70;;;3.40;99.90;;;2.32;100.00;103025.22;4156816;28;20036;-78
2023/02/12 02:36:55;;;;;;;35.38;23.70;;;3.40;99.90;;;2.26;100.00;103034.09;4168076;28;20032;-78
2023/02/12 02:39:49;;;;;;;40.65;26.52;;;3.30;99.90;;;2.28;100.00;103028.81;4153407;28;20540;-78
2023/02/12 02:42:00;;;;;;;36.63;24.00;;;3.30;99.90;;;2.24;100.00;103026.31;4103649;28;20047;-78
2023/02/12 02:44:12;;;;;;;36.50;24.60;;;3.30;99.90;;;2.19;100.00;103022.16;4141001;28;20112;-78
2023/02/12 02:46:35;;;;;;;36.90;23.45;;;3.30;99.90;;;2.10;100.00;103019.81;4156335;28;20049;-78
2023/02/12 02:48:44;;;;;;;35.92;23.73;;;3.20;99.90;;;2.04;100.00;103004.38;4167517;28;20080;-78
2023/02/12 02:50:58;;;;;;;38.25;23.85;;;3.20;99.90;;;2.15;100.00;103016.16;4167955;28;20511;-78
2023/02/12 02:53:09;;;;;;;35.58;24.33;;;3.10;99.90;;;2.14;100.00;103017.09;4167851;28;20100;-78
2023/02/12 02:55:15;;;;;;;35.38;23.20;;;3.20;99.90;;;2.02;100.00;103007.03;4167658;28;20041;-78
2023/02/12 02:57:41;;;;;;;36.83;22.45;;;3.10;99.90;;;2.04;100.00;103005.25;4161231;28;20049;-78
2023/02/12 02:59:53;;;;;;;37.42;24.13;;;3.10;99.90;;;2.05;100.00;103001.75;4152174;28;20029;-78
2023/02/12 03:02:09;;;;;;;32.42;22.20;;;3.10;99.90;;;2.08;100.00;103014.69;4155703;28;20025;-78
2023/02/12 03:04:20;;;;;;;39.17;24.52;;;3.00;99.90;;;1.96;100.00;103007.22;4158406;28;20033;-78
2023/02/12 03:06:31;;;;;;;36.80;22.40;;;3.00;99.90;;;2.00;100.00;103005.41;4154976;28;20017;-78
2023/02/12 03:08:46;;;;;;;36.65;23.95;;;3.00;99.90;;;2.03;100.00;103003.53;4152540;28;20038;-78
2023/02/12 03:10:53;;;;;;;;;;;3.00;99.90;;;2.00;100.00;103002.78;4151776;28;20085;-77
2023/02/12 03:13:31;;;;;;;34.60;22.05;;;3.00;99.90;;;1.95;100.00;103002.91;4150950;28;19910;-78
2023/02/12 03:15:45;;;;;;;38.83;23.95;;;3.00;99.90;;;1.88;100.00;102977.97;4160706;28;20044;-78
2023/02/12 03:17:48;;;;;;;32.67;23.02;;;3.00;99.90;;;1.93;100.00;102988.25;4152328;28;20032;-78
2023/02/12 03:20:04;;;;;;;38.15;25.08;;;3.00;99.90;;;1.93;100.00;102983.91;4151403;28;20383;-78
2023/02/12 03:22:37;;;;;;;37.53;24.65;;;3.00;99.90;;;1.96;100.00;102986.41;4150756;28;20528;-78
2023/02/12 03:24:50;;;;;;;37.22;24.17;;;2.90;99.90;;;2.04;100.00;102989.63;4150718;28;20536;-78
2023/02/12 03:27:09;;;;;;;40.75;24.52;;;3.00;99.90;;;2.02;100.00;102987.97;4167512;28;20021;-78
2023/02/12 03:29:11;;;;;;;37.67;23.20;;;3.00;99.90;;;1.97;100.00;102977.69;4152753;28;20509;-78
2023/02/12 03:31:23;;;;;;;37.35;23.85;;;3.10;99.90;;;2.01;100.00;102992.31;4153874;28;20564;-78
2023/02/12 03:33:41;;;;;;;36.55;23.73;;;3.00;99.90;;;1.97;100.00;102987.28;4158210;28;20033;-78
2023/02/12 03:36:01;;;;;;;33.85;22.77;;;3.00;99.90;;;1.99;100.00;102982.84;4151803;28;20117;-78
2023/02/12 03:38:25;;;;;;;35.13;21.85;;;3.00;99.90;;;1.96;100.00;102990.75;4151167;28;20570;-78
2023/02/12 03:40:46;;;;;;;34.90;22.47;;;3.00;99.90;;;1.92;100.00;102987.38;4152138;28;20022;-78
2023/02/12 03:42:55;;;;;;;37.85;23.33;;;2.90;99.90;;;1.85;100.00;102988.47;4152604;28;20026;-78
2023/02/12 03:45:12;;;;;;;39.42;23.73;;;2.90;99.90;;;1.86;100.00;102984.97;4152089;28;20038;-78
2023/02/12 03:47:46;;;;;;;36.22;23.70;;;2.90;99.90;;;1.79;100.00;102973.06;4158740;28;20030;-78
2023/02/12 03:50:20;;;;;;;35.95;22.27;;;2.90;99.90;;;1.72;100.00;102965.47;4139645;28;20042;-78
2023/02/12 03:52:21;;;;;;;34.55;23.63;;;2.80;99.90;;;1.80;100.00;102982.53;4156859;28;20026;-78
2023/02/12 03:54:23;;;;;;;38.50;23.88;;;2.80;99.90;;;1.92;100.00;102987.38;4167476;28;20081;-78
2023/02/12 03:56:50;;;;;;;38.05;23.73;;;2.90;99.90;;;1.86;100.00;102984.09;4150719;28;20022;-79
2023/02/12 03:58:51;;;;;;;37.30;23.48;;;2.90;99.90;;;1.87;100.00;102991.88;4150605;28;20044;-78
2023/02/12 04:00:52;;;;;;;36.70;22.83;;;2.80;99.90;;;1.86;100.00;102989.31;4152141;28;20073;-78
2023/02/12 04:02:54;;;;;;;37.85;24.42;;;2.90;99.90;;;1.87;100.00;102981.47;4150060;28;20521;-78
2023/02/12 04:04:55;;;;;;;39.17;25.42;;;2.90;99.90;;;1.89;100.00;102995.28;4166576;28;20045;-78
2023/02/12 04:06:57;;;;;;;39.08;23.65;;;2.90;99.90;;;1.92;100.00;102995.19;4166599;28;20026;-78
2023/02/12 04:09:04;;;;;;;39.10;24.27;;;2.90;99.90;;;2.03;100.00;102987.09;4167307;28;20525;-78
2023/02/12 04:11:27;;;;;;;33.25;23.00;;;3.00;99.90;;;2.00;100.00;102992.38;4150919;28;20033;-78
2023/02/12 04:13:45;;;;;;;37.30;24.58;;;3.00;99.90;;;2.00;100.00;102993.22;4140772;28;20034;-78
2023/02/12 04:16:08;;;;;;;39.03;23.33;;;3.00;99.90;;;1.99;100.00;102999.34;4183431;28;20033;-78
2023/02/12 04:18:19;;;;;;;35.72;23.67;;;3.00;99.90;;;1.89;100.00;102992.69;4150676;28;20493;-78
2023/02/12 04:20:49;;;;;;;41.28;24.13;;;2.90;99.90;;;1.94;100.00;102989.97;4150930;28;20026;-78
2023/02/12 04:23:18;;;;;;;37.22;23.05;;;3.00;99.90;;;1.95;100.00;103007.25;4150900;28;20032;-78
2023/02/12 04:26:16;;;;;;;37.97;24.48;;;2.90;99.90;;;1.96;100.00;103008.97;4151916;28;20093;-78
2023/02/12 04:28:34;;;;;;;35.50;23.13;;;3.00;99.90;;;1.97;100.00;103014.13;4160173;28;20065;-77
2023/02/12 04:30:51;;;;;;;38.22;24.20;;;3.00;99.90;;;1.88;100.00;103011.78;4168075;28;20033;-78
2023/02/12 04:33:05;;;;;;;37.83;22.55;;;2.90;99.90;;;1.79;100.00;103006.88;4160407;28;20513;-77
2023/02/12 04:35:30;;;;;;;39.47;23.27;;;2.80;99.90;;;1.77;100.00;103000.00;4164291;28;20048;-78
2023/02/12 04:37:40;;;;;;;32.50;22.48;;;2.80;99.90;;;1.76;100.00;102999.16;4162523;28;20057;-78
2023/02/12 04:39:42;;;;;;;33.85;22.88;;;2.80;99.90;;;1.78;100.00;103012.97;4153517;28;20077;-78
2023/02/12 04:41:42;;;;;;;38.58;24.90;;;2.80;99.90;;;1.79;100.00;103019.88;4153460;28;20088;-78
2023/02/12 04:43:43;;;;;;;38.38;24.15;;;2.80;99.90;;;1.84;100.00;103023.19;4154384;28;20026;-78
2023/02/12 04:45:44;;;;;;;37.42;24.25;;;2.80;99.90;;;1.76;100.00;103030.38;4154593;28;20080;-78
2023/02/12 04:47:46;;;;;;;33.40;22.90;;;2.80;99.90;;;1.75;100.00;103026.06;4160632;28;20080;-78
2023/02/12 04:49:47;;;;;;;39.97;23.45;;;2.80;99.90;;;1.76;100.00;103024.31;4153444;28;20045;-78
2023/02/12 04:51:48;;;;;;;36.03;23.60;;;2.80;99.90;;;1.76;100.00;103034.72;4152969;28;20025;-78
2023/02/12 04:53:50;;;;;;;38.22;23.33;;;2.70;99.90;;;1.70;100.00;103025.34;4154401;28;20034;-78
2023/02/12 04:55:51;;;;;;;37.08;23.50;;;2.70;99.90;;;1.74;100.00;103023.50;4153132;28;20570;-78
2023/02/12 04:57:51;;;;;;;38.58;23.98;;;2.70;99.90;;;1.76;100.00;103034.72;4157300;28;20035;-78
2023/02/12 04:59:52;;;;;;;40.63;25.83;;;2.70;99.90;;;1.68;100.00;103027.97;4154246;28;20026;-78
2023/02/12 05:01:53;;;;;;;38.88;23.90;;;2.70;99.90;;;1.65;100.00;103022.00;4153183;28;20057;-78
2023/02/12 05:03:54;;;;;;;40.47;24.48;;;2.70;99.90;;;1.71;100.00;103036.59;4154265;28;20029;-78
2023/02/12 05:05:55;;;;;;;31.27;21.92;;;2.70;99.90;;;1.62;100.00;103027.31;4152906;28;20072;-78
2023/02/12 05:07:56;;;;;;;35.45;23.25;;;2.60;99.90;;;1.57;100.00;103030.03;4152665;28;20081;-78
2023/02/12 05:09:57;;;;;;;32.33;21.40;;;2.60;99.90;;;1.46;100.00;103026.03;4152959;28;20029;-78
2023/02/12 05:11:58;;;;;;;34.38;23.15;;;2.50;99.90;;;1.43;100.00;103028.72;4153162;28;20026;-79
2023/02/12 05:13:59;;;;;;;37.47;22.63;;;2.50;99.90;;;1.43;100.00;103031.31;4136552;28;20027;-78
2023/02/12 05:16:05;;;;;;;35.95;23.98;;;2.50;99.90;;;1.29;100.00;103013.47;4153994;28;20555;-78
2023/02/12 05:18:05;;;;;;;35.95;22.15;;;2.50;99.90;;;1.44;100.00;103033.88;4168791;28;20025;-77
2023/02/12 05:20:07;;;;;;;34.78;22.70;;;2.50;99.90;;;1.40;100.00;103024.47;4185474;28;20032;-78
2023/02/12 05:22:08;;;;;;;35.13;23.42;;;2.50;99.90;;;1.38;100.00;103027.97;4152536;28;20108;-78
2023/02/12 05:24:09;;;;;;;35.63;23.25;;;2.40;99.90;;;1.32;100.00;103016.00;4168053;28;20046;-78
2023/02/12 05:26:18;;;;;;;36.97;24.23;;;2.40;99.90;;;1.37;100.00;103034.09;4169071;28;20030;-78
2023/02/12 05:28:19;;;;;;;39.03;24.05;;;2.40;99.90;;;1.35;100.00;103020.25;4161466;28;20521;-78
2023/02/12 05:30:20;;;;;;;33.70;23.17;;;2.40;99.90;;;1.28;100.00;103014.38;4157670;28;20485;-78
2023/02/12 05:32:22;;;;;;;33.10;22.75;;;2.30;99.90;;;1.25;100.00;103022.28;4152216;28;20664;-78
2023/02/12 05:34:23;;;;;;;39.70;23.08;;;2.30;99.90;;;1.20;100.00;103031.06;4169191;28;20034;-78
2023/02/12 05:36:25;;;;;;;33.33;22.90;;;2.20;99.90;;;1.08;100.00;103021.84;4170077;28;20026;-78
2023/02/12 05:38:25;;;;;;;35.95;23.13;;;2.20;99.90;;;1.04;100.00;103018.50;4157983;28;20034;-78
2023/02/12 05:40:26;;;;;;;38.42;23.50;;;2.10;99.90;;;1.07;100.00;103023.59;4166587;28;20512;-78
2023/02/12 05:42:29;;;;;;;41.78;24.60;;;2.10;99.90;;;1.14;100.00;103011.28;4156775;28;20104;-78
2023/02/12 05:44:29;;;;;;;42.00;23.95;;;2.10;99.90;;;1.11;100.00;102998.38;4168661;28;20025;-78
2023/02/12 05:46:31;;;;;;;35.67;23.23;;;2.10;99.90;;;1.11;100.00;103004.41;4168826;28;20397;-78
2023/02/12 05:48:33;;;;;;;33.10;22.55;;;2.10;99.90;;;1.07;100.00;103012.34;4170517;28;20060;-78
2023/02/12 05:50:34;;;;;;;39.97;24.08;;;2.10;99.90;;;1.04;100.00;103015.88;4152490;28;20029;-78
2023/02/12 05:52:35;;;;;;;36.30;24.08;;;2.00;99.90;;;1.02;100.00;103004.66;4152451;28;20073;-78
2023/02/12 05:54:36;;;;;;;37.67;23.88;;;2.00;99.90;;;1.05;100.00;103012.38;4162601;28;20164;-78
2023/02/12 05:56:44;;;;;;;38.88;25.15;;;2.00;99.90;;;1.03;100.00;103008.97;4165515;28;20052;-78
2023/02/12 05:58:50;;;;;;;41.45;26.23;;;2.00;99.90;;;1.14;100.00;103019.06;4152135;28;20034;-78
2023/02/12 06:00:51;;;;;;;38.70;23.70;;;2.10;99.90;;;1.13;100.00;103015.63;4161502;28;20029;-78
2023/02/12 06:02:52;;;;;;;43.67;25.35;;;2.10;99.90;;;1.12;100.00;103002.69;4157954;28;20026;-78
2023/02/12 06:04:53;;;;;;;37.63;24.20;;;2.10;99.90;;;1.08;100.00;102999.31;4166590;28;20111;-78
2023/02/12 06:06:54;;;;;;;38.95;23.58;;;2.10;99.90;;;1.00;100.00;102998.66;4168452;28;20052;-78
2023/02/12 06:08:57;;;;;;;53.90;27.90;;;2.10;99.90;;;1.10;100.00;102999.28;4169604;28;20393;-78
2023/02/12 06:11:01;;;;;;;42.05;24.75;;;2.10;99.90;;;1.10;100.00;103004.47;4165026;28;20040;-78
2023/02/12 06:13:02;;;;;;;44.67;26.25;;;2.10;99.90;;;0.99;100.00;102999.53;4153152;28;20029;-78
2023/02/12 06:15:03;;;;;;;47.33;27.38;;;2.10;99.90;;;1.07;100.00;103014.94;4152044;28;20041;-78
2023/02/12 06:17:04;;;;;;;38.95;25.35;;;2.10;99.90;;;1.02;100.00;103009.00;4161013;28;20053;-78
2023/02/12 06:19:06;;;;;;;43.53;25.88;;;2.00;99.90;;;0.89;100.00;102997.22;4158088;28;20029;-78
2023/02/12 06:21:07;;;;;;;39.72;24.60;;;2.00;99.90;;;0.91;100.00;103008.44;4152121;28;20494;-78
2023/02/12 06:23:07;;;;;;;43.03;25.35;;;1.90;99.90;;;0.91;100.00;103014.47;4153237;28;20044;-78
2023/02/12 06:25:08;;;;;;;49.22;28.05;;;1.90;99.90;;;0.81;100.00;102996.56;4153048;28;20202;-78
2023/02/12 06:27:09;;;;;;;46.70;26.58;;;1.90;99.90;;;0.98;100.00;103013.44;4160230;28;20033;-78
2023/02/12 06:29:12;;;;;;;46.38;26.08;;;2.00;99.90;;;1.00;100.00;103011.66;4167936;28;20458;-78
2023/02/12 06:31:29;;;;;;;43.60;25.95;;;2.00;99.90;;;1.06;100.00;103014.09;4151397;28;20026;-78
2023/02/12 06:33:30;;;;;;;43.08;26.52;;;2.10;99.90;;;1.13;100.00;103020.81;4158127;28;20112;-78
2023/02/12 06:35:33;;;;;;;41.90;26.58;;;2.10;99.90;;;1.13;100.00;103018.22;4151778;28;20030;-78
2023/02/12 06:37:35;;;;;;;44.05;26.50;;;2.10;99.90;;;1.11;100.00;103014.81;4163385;28;20026;-78
2023/02/12 06:39:37;;;;;;;46.85;26.25;;;2.10;99.90;;;1.09;100.00;103020.97;4169194;28;20473;-78
2023/02/12 06:41:38;;;;;;;44.25;27.67;;;2.10;99.90;;;1.14;100.00;103019.06;4168191;28;20021;-78
2023/02/12 06:43:39;;;;;;;42.47;26.35;;;2.10;99.90;;;1.10;100.00;103022.66;4167787;28;20362;-78
2023/02/12 06:45:40;;;;;;;50.72;28.33;;;2.10;99.90;;;1.08;100.00;103025.28;4169103;28;20024;-78
2023/02/12 06:47:41;;;;;;;47.90;26.75;;;2.10;99.90;;;1.06;100.00;103031.44;4160324;28;20441;-78
2023/02/12 06:49:42;;;;;;;46.33;27.60;;;2.10;99.90;;;1.04;100.00;103009.84;4161610;28;20030;-78
2023/02/12 06:51:43;;;;;;;47.15;27.85;;;2.10;99.90;;;1.05;100.00;103020.19;4164759;28;20072;-78
2023/02/12 06:53:44;;;;;;;49.97;28.05;;;2.10;99.90;;;1.11;100.00;103022.63;4168303;28;20083;-78
2023/02/12 06:55:45;;;;;;;45.47;26.95;;;2.10;99.90;;;1.06;100.00;103028.81;4167616;28;20362;-78
2023/02/12 06:57:46;;;;;;;46.58;27.73;;;2.10;99.90;;;1.04;100.00;103034.09;4167325;28;20087;-78
2023/02/12 06:59:47;;;;;;;49.75;27.38;;;2.10;99.90;;;1.10;100.00;103039.13;4168691;28;20069;-78
2023/02/12 07:01:48;;;;;;;47.92;28.52;;;2.10;99.90;;;0.99;100.00;103022.06;4167661;28;20029;-78
2023/02/12 07:03:53;;;;;;;42.67;27.33;;;2.10;99.90;;;1.05;100.00;103040.97;4168044;28;20022;-78
2023/02/12 07:05:54;;;;;;;45.67;26.45;;;2.10;99.90;;;1.01;100.00;103033.31;4168726;28;20021;-78
2023/02/12 07:07:54;;;;;;;46.88;27.35;;;2.00;99.90;;;1.02;100.00;103030.66;4167429;28;20021;-78
2023/02/12 07:09:55;;;;;;;52.97;29.10;;;2.10;99.90;;;1.05;100.00;103030.56;4167605;28;20049;-78
2023/02/12 07:11:59;;;;;;;46.40;28.20;;;2.10;99.90;;;1.04;100.00;103023.69;4159398;28;20052;-78
2023/02/12 07:14:00;;;;;;;51.63;27.73;;;2.10;99.90;;;0.98;100.00;103028.19;4169102;28;20048;-78
2023/02/12 07:16:14;;;;;;;48.20;28.52;;;2.00;99.90;;;0.94;100.00;103011.81;4168161;28;20108;-78
2023/02/12 07:18:15;;;;;;;36.88;20.92;;;2.00;99.90;;;0.89;100.00;103024.06;4151016;28;20050;-78
2023/02/12 07:20:17;;;;;;;45.22;26.05;;;2.00;99.90;;;0.88;100.00;103030.16;4135141;28;20030;-78
2023/02/12 07:22:17;;;;;;;43.03;27.08;;;1.90;99.90;;;0.86;100.00;103028.50;4175791;28;20026;-78
2023/02/12 07:24:18;;;;;;;45.47;27.65;;;1.90;99.90;;;0.76;100.00;103022.66;4169650;28;20053;-79
2023/02/12 07:26:21;;;;;;;48.20;28.65;;;1.90;99.90;;;0.91;100.00;103043.06;4151902;28;20398;-78
2023/02/12 07:28:22;;;;;;;48.33;27.75;;;1.90;99.90;;;0.90;100.00;103046.53;4161066;28;20068;-78
2023/02/12 07:30:22;;;;;;;49.42;27.98;;;1.90;99.90;;;0.94;100.00;103052.53;4167418;28;20089;-78
2023/02/12 07:32:23;;;;;;;47.75;27.50;;;1.90;99.90;;;0.90;100.00;103046.53;4166197;28;20091;-78
2023/02/12 07:34:24;;;;;;;44.55;25.45;;;1.90;99.90;;;0.89;100.00;103054.41;4172645;28;20055;-79
2023/02/12 07:36:30;;;;;;;46.65;27.80;;;1.90;99.90;;;0.89;100.00;103046.59;4159381;28;20056;-78
2023/02/12 07:38:34;;;;;;;48.00;28.48;;;1.90;99.90;;;0.93;100.00;103046.47;4155988;28;20034;-79
2023/02/12 07:40:35;;;;;;;44.28;27.75;;;1.90;99.90;;;0.93;100.00;103048.22;4150722;28;20038;-79
2023/02/12 07:42:36;;;;;;;59.05;28.73;;;2.00;99.90;;;0.98;100.00;103049.81;4167463;28;20060;-78
2023/02/12 07:44:37;;;;;;;46.55;28.60;;;2.00;99.90;;;0.99;100.00;103041.13;4167383;28;20032;-79
2023/02/12 07:46:46;;;;;;;49.63;28.70;;;2.00;99.90;;;1.06;100.00;103058.28;4159387;28;20026;-79
2023/02/12 07:48:47;;;;;;;50.28;28.50;;;2.00;99.90;;;1.17;100.00;103050.19;4152165;28;20623;-79
2023/02/12 07:50:48;;;;;;;56.45;28.95;;;2.10;99.90;;;1.13;100.00;103048.59;4152191;28;20026;-78
2023/02/12 07:52:49;;;;;;;47.22;29.23;;;2.20;99.90;;;1.17;100.00;103045.00;4150686;28;20030;-79
2023/02/12 07:54:50;;;;;;;49.25;28.23;;;2.20;99.90;;;1.18;100.00;103044.13;4150778;28;20049;-78
2023/02/12 07:56:51;;;;;;;51.08;28.88;;;2.20;99.90;;;1.27;100.00;103045.63;4173970;28;20525;-79
2023/02/12 07:58:53;;;;;;;46.60;26.60;;;2.30;99.90;;;1.28;100.00;103055.13;4156786;28;20548;-78
2023/02/12 08:00:53;;;;;;;54.55;29.67;;;2.30;99.90;;;1.31;100.00;103055.06;4150660;28;20040;-78
2023/02/12 08:02:54;;;;;;;49.55;27.75;;;2.30;99.90;;;1.31;100.00;103047.25;4166954;28;20069;-78
2023/02/12 08:04:56;;;;;;;45.40;28.33;;;2.30;99.90;;;1.33;100.00;103053.25;4153714;28;20021;-78
2023/02/12 08:06:57;;;;;;;43.45;27.70;;;2.40;99.90;;;1.28;100.00;103039.53;4162369;28;20032;-78
2023/02/12 08:09:00;;;;;;;46.80;29.83;;;2.30;99.90;;;1.33;100.00;103045.44;4155265;28;20030;-78
2023/02/12 08:11:01;;;;;;;47.10;28.08;;;2.40;99.90;;;1.35;100.00;103046.25;4162333;28;20025;-78
2023/02/12 08:13:02;;;;;;;44.65;27.52;;;2.40;99.90;;;1.43;100.00;103046.94;4140731;28;20037;-78
2023/02/12 08:15:03;;;;;;;47.40;28.05;;;2.40;99.90;;;1.39;100.00;103040.94;4161636;28;20152;-78
2023/02/12 08:17:04;;;;;;;48.22;26.52;;;2.50;99.90;;;1.47;100.00;103053.72;4169708;28;20049;-78
2023/02/12 08:19:06;;;;;;;49.38;27.55;;;2.50;99.90;;;1.54;100.00;103060.47;4156925;28;20054;-78
2023/02/12 08:21:12;;;;;;;47.08;28.50;;;2.50;99.90;;;1.53;100.00;103048.34;4169791;28;20512;-78
2023/02/12 08:23:13;;;;;;;44.15;26.40;;;2.60;99.90;;;1.62;100.00;103056.78;4144501;28;20032;-78
2023/02/12 08:25:13;;;;;;;47.45;26.60;;;2.60;99.90;;;1.66;100.00;103058.41;4163683;28;20030;-78
2023/02/12 08:27:14;;;;;;;44.10;27.63;;;2.60;99.90;;;1.76;100.00;103052.94;4157639;28;20026;-79
2023/02/12 08:29:20;;;;;;;52.22;27.60;;;2.70;99.90;;;1.82;100.00;103051.03;4137215;28;20088;-76
2023/02/12 08:31:28;;;;;;;50.05;28.48;;;2.80;99.90;;;1.94;100.00;103060.22;4160686;28;20022;-77
2023/02/12 08:33:29;;;;;;;47.80;28.08;;;2.90;99.90;;;2.00;100.00;103062.66;4171802;28;20494;-78
2023/02/12 08:35:30;;;;;;;47.13;27.42;;;2.90;99.90;;;2.01;100.00;103056.53;4153961;28;20109;-78
2023/02/12 08:37:31;;;;;;;50.53;29.40;;;3.00;99.90;;;2.04;100.00;103062.50;4164514;28;20030;-78
2023/02/12 08:39:32;;;;;;;45.95;27.77;;;3.00;99.90;;;2.13;100.00;103062.25;4153089;28;20041;-79
2023/02/12 08:41:34;;;;;;;49.70;27.88;;;3.00;99.90;;;2.09;100.00;103058.00;4152996;28;20116;-77